Minot Air Force Base Minot US
ICAO: KMIB
IATA: MIB
Category: Medium
Scheduled Services: No

Elevation: 1667 ft
TransAlt. 18000 ft.

Airport Communications:
APP:119.6
ATIS:27.88
CLNC DEL:32.62
DEP:119.6
GND:134
PMSV METRO:34.25
COMD POST:32.1
PTD:37.22
TWR:120.65

KMIB Zoom In..

If you have problems with the map follow the link
https://www.worldairports.se/pages/airport.php?
ICAO=KMIB

Runways:

(A) RW 11 length 13197 ft width 300 ft
ILS 109.90 / hdg 115

(B) RW 29 length 13197 ft width 300 ft
ILS 109.90 / hdg 295

Location; KMIB
Day. 14 / Time. 10.56 Zulu
* Altimeter: 29.97
* Temperature: -01° c. -30.2°f.
* Wind from: 240° Speed 10 kn.
Dewpoint: -04° c.
Visibility: 10 Statute Miles.
Clouds: Clear (automated report).

KMIB 141056Z AUTO 24010KT 10SM CLR M01/M04 A2997 RMK AO2 SLP174 T10101045 $


Wind From 240°
Speed 10 kn.

 
 
jpsmedia.com for Web Design worldairports.se 2018   terms of use